McGirk, Missouri
Current Conditions -  °F | °C
As of 9:53 PM on Thursday 18 Dec 2014 (Local Time) from KJEF Reporting Station
Overcast Overcast  
Wind Chill: 30°   Ceiling: 900
Heat Index: 34°   Visibility: 8mi
Dew Point: 30°   Wind: 5mph
Humidity: 85%   Direction: 90°E
Pressure: 30.28"   Gusts: NA
Location:  38.61°N, 92.48°W
Report Text: KJEF 190353Z AUTO 09004KT 8SM OVC009 01/M01 A3028 RMK AO2 SLP249 T00111011
Loading
Personal Weather Stations






























Interactive Weather Map New forecast layout! Learn more

10-Day Weather Forecast

Advertisements
Track Severe Weather on mobile